createdAt,value
2018-12-04T00:01:59.718Z,96906.00
2018-12-04T00:06:02.104Z,96914.00
2018-12-04T00:10:05.959Z,96906.00
2018-12-04T00:14:08.328Z,96919.00
2018-12-04T00:18:10.789Z,96914.00
2018-12-04T00:22:13.106Z,96911.00
2018-12-04T00:26:15.496Z,96923.00
2018-12-04T00:30:17.862Z,96928.00
2018-12-04T00:34:20.213Z,96914.00
2018-12-04T00:38:22.637Z,96922.00
2018-12-04T00:42:25.038Z,96943.00
2018-12-04T00:46:27.401Z,96947.00
2018-12-04T00:50:29.711Z,96954.00
2018-12-04T00:54:32.083Z,96962.00
2018-12-04T00:58:34.451Z,96959.00
2018-12-04T01:02:36.885Z,96972.00
2018-12-04T01:06:39.276Z,96969.00
2018-12-04T01:10:41.626Z,96979.00
2018-12-04T01:14:44.016Z,96990.00
2018-12-04T01:18:46.450Z,96990.00
2018-12-04T01:22:48.787Z,97001.00
2018-12-04T01:26:51.187Z,97015.00
2018-12-04T01:30:53.566Z,97011.00
2018-12-04T01:34:55.944Z,97016.00
2018-12-04T01:38:58.289Z,97023.00
2018-12-04T01:43:00.673Z,97021.00
2018-12-04T01:47:03.075Z,97032.00
2018-12-04T01:51:05.491Z,97058.00
2018-12-04T01:55:07.845Z,97073.00
2018-12-04T01:59:10.240Z,97079.00
2018-12-04T02:03:12.629Z,97087.00
2018-12-04T02:07:15.005Z,97085.00
2018-12-04T02:11:17.426Z,97087.00
2018-12-04T02:15:19.879Z,97104.00
2018-12-04T02:19:22.234Z,97107.00
2018-12-04T02:23:24.597Z,97116.00
2018-12-04T02:27:27.004Z,97119.00
2018-12-04T02:31:29.341Z,97131.00
2018-12-04T02:35:31.693Z,97154.00
2018-12-04T02:39:34.070Z,97152.00
2018-12-04T02:43:36.387Z,97168.00
2018-12-04T02:47:38.746Z,97162.00
2018-12-04T02:51:41.081Z,97166.00
2018-12-04T02:55:43.411Z,97164.00
2018-12-04T02:59:45.899Z,97175.00
2018-12-04T03:03:48.256Z,97196.00
2018-12-04T03:07:50.641Z,97192.00
2018-12-04T03:11:53.155Z,97204.00
2018-12-04T03:15:55.614Z,97212.00
2018-12-04T03:19:57.931Z,97220.00
2018-12-04T03:24:00.345Z,97239.00
2018-12-04T03:28:02.695Z,97249.00
2018-12-04T03:32:05.063Z,97262.00
2018-12-04T03:36:07.627Z,97274.00
2018-12-04T03:40:10.126Z,97276.00
2018-12-04T03:44:12.525Z,97283.00
2018-12-04T03:48:14.932Z,97302.00
2018-12-04T03:52:17.373Z,97315.00
2018-12-04T03:56:19.748Z,97316.00
2018-12-04T04:00:22.133Z,97333.00
2018-12-04T04:04:24.458Z,97340.00
2018-12-04T04:08:26.836Z,97354.00
2018-12-04T04:12:29.298Z,97362.00
2018-12-04T04:16:31.700Z,97353.00
2018-12-04T04:20:34.057Z,97366.00
2018-12-04T04:24:36.399Z,97376.00
2018-12-04T04:28:38.782Z,97382.00
2018-12-04T04:32:41.166Z,97391.00
2018-12-04T04:36:43.457Z,97413.00
2018-12-04T04:40:45.811Z,97419.00
2018-12-04T04:44:48.175Z,97415.00
2018-12-04T04:48:50.569Z,97420.00
2018-12-04T04:52:52.901Z,97426.00
2018-12-04T04:56:55.290Z,97439.00
2018-12-04T05:00:57.686Z,97444.00
2018-12-04T05:05:00.021Z,97449.00
2018-12-04T05:09:02.510Z,97456.00
2018-12-04T05:13:04.905Z,97461.00
2018-12-04T05:17:07.331Z,97461.00
2018-12-04T05:21:09.683Z,97470.00
2018-12-04T05:25:12.064Z,97488.00
2018-12-04T05:29:14.490Z,97489.00
2018-12-04T05:33:17.136Z,97490.00
2018-12-04T05:37:19.466Z,97497.00
2018-12-04T05:41:21.895Z,97517.00
2018-12-04T05:45:24.276Z,97521.00
2018-12-04T05:49:26.657Z,97533.00
2018-12-04T05:53:35.466Z,97541.00
2018-12-04T05:57:37.950Z,97549.00
2018-12-04T06:01:40.316Z,97556.00
2018-12-04T06:05:42.715Z,97562.00
2018-12-04T06:09:45.079Z,97581.00
2018-12-04T06:13:47.477Z,97591.00
2018-12-04T06:17:49.850Z,97610.00
2018-12-04T06:21:52.206Z,97625.00
2018-12-04T06:25:54.514Z,97631.00
2018-12-04T06:29:56.889Z,97630.00
2018-12-04T06:33:59.243Z,97644.00
2018-12-04T06:38:01.645Z,97645.00
2018-12-04T06:42:03.994Z,97649.00
2018-12-04T06:46:06.404Z,97664.00
2018-12-04T06:50:10.248Z,97674.00
2018-12-04T06:54:13.694Z,97686.00
2018-12-04T06:58:16.138Z,97695.00
2018-12-04T07:02:18.492Z,97712.00
2018-12-04T07:06:20.774Z,97708.00
2018-12-04T07:10:23.164Z,97723.00
2018-12-04T07:14:25.555Z,97741.00
2018-12-04T07:18:27.898Z,97758.00
2018-12-04T07:22:30.278Z,97772.00
2018-12-04T07:26:32.590Z,97781.00
2018-12-04T07:30:34.926Z,97796.00
2018-12-04T07:34:37.437Z,97795.00
2018-12-04T07:38:39.783Z,97791.00
2018-12-04T07:42:42.156Z,97800.00
2018-12-04T07:46:44.458Z,97803.00
2018-12-04T07:50:46.810Z,97805.00
2018-12-04T07:54:49.154Z,97824.00
2018-12-04T07:58:51.729Z,97839.00
2018-12-04T08:02:54.278Z,97857.00
2018-12-04T08:06:56.644Z,97867.00
2018-12-04T08:10:58.978Z,97880.00
2018-12-04T08:15:01.429Z,97883.00
2018-12-04T08:19:03.878Z,97898.00
2018-12-04T08:23:06.328Z,97909.00
2018-12-04T08:27:10.154Z,97929.00
2018-12-04T08:31:12.526Z,97925.00
2018-12-04T08:35:14.961Z,97945.00
2018-12-04T08:39:17.360Z,97958.00
2018-12-04T08:43:19.743Z,97952.00
2018-12-04T08:47:22.106Z,97959.00
2018-12-04T08:51:24.483Z,97975.00
2018-12-04T08:55:26.878Z,97986.00
2018-12-04T08:59:29.292Z,97987.00
2018-12-04T09:03:31.623Z,97993.00
2018-12-04T09:07:34.057Z,98006.00
2018-12-04T09:11:36.515Z,98010.00
2018-12-04T09:15:38.921Z,98023.00
2018-12-04T09:19:41.272Z,98034.00
2018-12-04T09:23:43.706Z,98041.00
2018-12-04T09:27:48.670Z,98055.00
2018-12-04T09:31:51.107Z,98067.00
2018-12-04T09:35:53.473Z,98064.00
2018-12-04T09:39:55.942Z,98072.00
2018-12-04T09:43:58.352Z,98088.00
2018-12-04T09:48:00.784Z,98097.00
2018-12-04T09:52:03.171Z,98101.00
2018-12-04T09:56:05.547Z,98094.00
2018-12-04T10:00:08.876Z,98107.00
2018-12-04T10:04:11.222Z,98108.00
2018-12-04T10:08:13.632Z,98126.00
2018-12-04T10:12:15.996Z,98128.00
2018-12-04T10:16:18.448Z,98141.00
2018-12-04T10:20:23.836Z,98144.00
2018-12-04T10:24:26.250Z,98139.00
2018-12-04T10:28:28.584Z,98138.00
2018-12-04T10:32:30.943Z,98156.00
2018-12-04T10:36:33.312Z,98153.00
2018-12-04T10:40:35.718Z,98164.00
2018-12-04T10:44:38.392Z,98163.00
2018-12-04T10:48:40.799Z,98163.00
2018-12-04T10:52:43.136Z,98164.00
2018-12-04T10:56:45.471Z,98165.00
2018-12-04T11:00:53.570Z,98168.00
2018-12-04T11:04:56.017Z,98177.00
2018-12-04T11:08:58.366Z,98186.00
2018-12-04T11:13:00.781Z,98195.00
2018-12-04T11:17:03.159Z,98197.00
2018-12-04T11:21:06.200Z,98206.00
2018-12-04T11:25:09.170Z,98215.00
2018-12-04T11:29:11.560Z,98218.00
2018-12-04T11:33:13.896Z,98225.00
2018-12-04T11:37:16.294Z,98228.00
2018-12-04T11:41:18.639Z,98226.00
2018-12-04T11:45:21.061Z,98233.00
2018-12-04T11:49:23.453Z,98252.00
2018-12-04T11:53:25.819Z,98245.00
2018-12-04T11:57:28.262Z,98257.00
2018-12-04T12:01:31.427Z,98248.00
2018-12-04T12:05:33.790Z,98251.00
2018-12-04T12:09:36.142Z,98260.00
2018-12-04T12:13:38.509Z,98267.00
2018-12-04T12:17:41.646Z,98272.00
2018-12-04T12:21:43.991Z,98285.00
2018-12-04T12:25:46.329Z,98285.00
2018-12-04T12:29:48.691Z,98297.00
2018-12-04T12:33:50.999Z,98295.00
2018-12-04T12:37:53.326Z,98298.00
2018-12-04T12:41:55.686Z,98295.00
2018-12-04T12:45:58.046Z,98288.00
2018-12-04T12:50:00.432Z,98299.00
2018-12-04T12:54:02.991Z,98308.00
2018-12-04T12:58:05.443Z,98314.00
2018-12-04T13:02:08.317Z,98311.00
2018-12-04T13:06:10.713Z,98315.00
2018-12-04T13:10:13.192Z,98324.00
2018-12-04T13:14:15.516Z,98334.00
2018-12-04T13:18:18.823Z,98331.00
2018-12-04T13:22:21.130Z,98339.00
2018-12-04T13:26:23.589Z,98329.00
2018-12-04T13:30:25.963Z,98335.00
2018-12-04T13:34:28.372Z,98349.00
2018-12-04T13:38:30.856Z,98359.00
2018-12-04T13:42:33.269Z,98361.00
2018-12-04T13:46:35.611Z,98359.00
2018-12-04T13:50:37.975Z,98356.00
2018-12-04T13:54:40.849Z,98357.00
2018-12-04T13:58:43.409Z,98361.00
2018-12-04T14:02:45.901Z,98370.00
2018-12-04T14:06:48.441Z,98374.00
2018-12-04T14:10:50.770Z,98387.00
2018-12-04T14:14:53.165Z,98393.00
2018-12-04T14:18:55.581Z,98406.00
2018-12-04T14:22:58.524Z,98405.00
2018-12-04T14:27:01.740Z,98413.00
2018-12-04T14:31:04.196Z,98425.00
2018-12-04T14:35:08.183Z,98426.00
2018-12-04T14:39:10.552Z,98431.00
2018-12-04T14:43:12.920Z,98441.00
2018-12-04T14:47:20.623Z,98433.00
2018-12-04T14:51:24.254Z,98446.00
2018-12-04T14:55:27.439Z,98431.00
2018-12-04T14:59:30.472Z,98455.00
2018-12-04T15:03:33.179Z,98465.00
2018-12-04T15:07:36.272Z,98469.00
2018-12-04T15:11:39.966Z,98476.00
2018-12-04T15:15:42.766Z,98473.00
2018-12-04T15:19:45.300Z,98480.00
2018-12-04T15:23:47.685Z,98477.00
2018-12-04T15:27:50.073Z,98489.00
2018-12-04T15:31:52.487Z,98499.00
2018-12-04T15:35:54.915Z,98516.00
2018-12-04T15:39:57.451Z,98509.00
2018-12-04T15:44:01.344Z,98515.00
2018-12-04T15:48:03.869Z,98520.00
2018-12-04T15:52:06.238Z,98522.00
2018-12-04T15:56:08.671Z,98530.00
2018-12-04T16:00:11.074Z,98545.00
2018-12-04T16:04:13.511Z,98556.00
2018-12-04T16:08:16.061Z,98552.00
2018-12-04T16:12:18.618Z,98549.00
2018-12-04T16:16:21.015Z,98557.00
2018-12-04T16:20:23.474Z,98564.00
2018-12-04T16:24:25.980Z,98575.00
2018-12-04T16:28:28.399Z,98573.00
2018-12-04T16:32:30.835Z,98572.00
2018-12-04T16:36:33.204Z,98575.00
2018-12-04T16:40:35.643Z,98584.00
2018-12-04T16:44:38.203Z,98591.00
2018-12-04T16:48:40.615Z,98598.00
2018-12-04T16:52:44.140Z,98598.00
2018-12-04T16:56:47.003Z,98610.00
2018-12-04T17:00:49.400Z,98610.00
2018-12-04T17:04:51.836Z,98611.00
2018-12-04T17:08:54.387Z,98610.00
2018-12-04T17:12:56.755Z,98619.00
2018-12-04T17:16:59.196Z,98619.00
2018-12-04T17:21:02.859Z,98637.00
2018-12-04T17:25:06.564Z,98639.00
2018-12-04T17:29:09.054Z,98651.00
2018-12-04T17:33:11.500Z,98656.00
2018-12-04T17:37:14.003Z,98652.00
2018-12-04T17:41:16.748Z,98653.00
2018-12-04T17:45:19.148Z,98652.00
2018-12-04T17:49:21.690Z,98646.00
2018-12-04T17:53:25.439Z,98662.00
2018-12-04T17:57:27.941Z,98655.00
2018-12-04T18:01:30.335Z,98663.00
2018-12-04T18:05:32.798Z,98657.00
2018-12-04T18:09:35.231Z,98655.00
2018-12-04T18:13:38.415Z,98666.00
2018-12-04T18:17:40.891Z,98664.00
2018-12-04T18:21:43.380Z,98663.00
2018-12-04T18:25:46.339Z,98671.00
2018-12-04T18:29:48.755Z,98672.00
2018-12-04T18:33:51.258Z,98680.00
2018-12-04T18:37:54.188Z,98691.00
2018-12-04T18:41:56.601Z,98693.00
2018-12-04T18:45:58.985Z,98689.00
2018-12-04T18:50:01.355Z,98690.00
2018-12-04T18:54:03.936Z,98698.00
2018-12-04T18:58:07.127Z,98701.00
2018-12-04T19:02:09.860Z,98705.00
2018-12-04T19:06:12.256Z,98697.00
2018-12-04T19:10:14.674Z,98702.00
2018-12-04T19:14:16.993Z,98705.00
2018-12-04T19:18:19.403Z,98715.00
2018-12-04T19:22:22.135Z,98720.00
2018-12-04T19:26:24.537Z,98727.00
2018-12-04T19:30:27.053Z,98719.00
2018-12-04T19:34:29.868Z,98721.00
2018-12-04T19:38:32.352Z,98722.00
2018-12-04T19:42:34.768Z,98715.00
2018-12-04T19:46:37.255Z,98714.00
2018-12-04T19:50:40.023Z,98735.00
2018-12-04T19:54:42.468Z,98746.00
2018-12-04T19:58:45.052Z,98747.00
2018-12-04T20:02:47.472Z,98747.00
2018-12-04T20:06:51.276Z,98747.00
2018-12-04T20:10:55.022Z,98755.00
2018-12-04T20:14:59.753Z,98762.00
2018-12-04T20:19:02.209Z,98760.00
2018-12-04T20:23:04.699Z,98763.00
2018-12-04T20:27:07.123Z,98769.00
2018-12-04T20:31:09.449Z,98776.00
2018-12-04T20:35:12.083Z,98776.00
2018-12-04T20:39:14.648Z,98776.00
2018-12-04T20:43:17.376Z,98779.00
2018-12-04T20:47:19.952Z,98796.00
2018-12-04T20:51:22.748Z,98797.00
2018-12-04T20:55:25.658Z,98802.00
2018-12-04T20:59:28.182Z,98799.00
2018-12-04T21:03:31.351Z,98807.00
2018-12-04T21:07:33.819Z,98804.00
2018-12-04T21:11:36.248Z,98808.00
2018-12-04T21:15:39.667Z,98813.00
2018-12-04T21:19:42.446Z,98817.00
2018-12-04T21:23:44.864Z,98815.00
2018-12-04T21:27:52.916Z,98813.00
2018-12-04T21:32:01.246Z,98825.00
2018-12-04T21:36:09.193Z,98824.00
2018-12-04T21:40:17.247Z,98817.00
2018-12-04T21:44:25.331Z,98812.00
2018-12-04T21:48:28.337Z,98821.00
2018-12-04T21:52:30.729Z,98814.00
2018-12-04T21:56:33.231Z,98816.00
2018-12-04T22:00:35.682Z,98823.00
2018-12-04T22:04:38.063Z,98831.00
2018-12-04T22:08:40.454Z,98825.00
2018-12-04T22:12:42.839Z,98822.00
2018-12-04T22:16:45.383Z,98824.00
2018-12-04T22:20:47.716Z,98824.00
2018-12-04T22:24:50.107Z,98823.00
2018-12-04T22:28:52.513Z,98822.00
2018-12-04T22:32:54.952Z,98833.00
2018-12-04T22:36:57.313Z,98835.00
2018-12-04T22:40:59.828Z,98828.00
2018-12-04T22:45:07.883Z,98836.00
2018-12-04T22:49:10.256Z,98828.00
2018-12-04T22:53:12.652Z,98844.00
2018-12-04T22:57:15.013Z,98841.00
2018-12-04T23:01:28.786Z,98829.00
2018-12-04T23:05:31.233Z,98830.00
2018-12-04T23:09:33.587Z,98837.00
2018-12-04T23:13:35.931Z,98834.00
2018-12-04T23:17:38.436Z,98837.00
2018-12-04T23:21:40.808Z,98839.00
2018-12-04T23:25:43.141Z,98826.00
2018-12-04T23:29:45.448Z,98835.00
2018-12-04T23:33:47.838Z,98833.00
2018-12-04T23:37:50.225Z,98827.00
2018-12-04T23:41:52.582Z,98821.00
2018-12-04T23:45:54.965Z,98827.00
2018-12-04T23:49:57.323Z,98832.00
2018-12-04T23:53:59.601Z,98828.00
2018-12-04T23:58:01.978Z,98832.00
